createdAt,value
2022-10-30T00:02:05.471Z,14.95
2022-10-30T00:07:07.028Z,14.96
2022-10-30T00:12:08.508Z,14.82
2022-10-30T00:17:10.012Z,14.88
2022-10-30T00:22:11.510Z,14.95
2022-10-30T00:27:13.007Z,14.81
2022-10-30T00:32:14.518Z,14.80
2022-10-30T00:37:18.014Z,14.82
2022-10-30T00:42:19.506Z,14.95
2022-10-30T00:47:36.190Z,14.94
2022-10-30T00:52:42.058Z,14.87
2022-10-30T00:57:44.319Z,14.85
2022-10-30T01:02:46.016Z,14.85
2022-10-30T01:07:47.606Z,14.69
2022-10-30T01:12:50.374Z,14.70
2022-10-30T01:18:13.655Z,14.74
2022-10-30T01:23:35.228Z,14.63
2022-10-30T01:28:55.415Z,14.55
2022-10-30T01:34:47.246Z,14.70
2022-10-30T01:39:48.831Z,14.69
2022-10-30T01:44:50.394Z,14.69
2022-10-30T01:50:14.697Z,14.70
2022-10-30T01:55:19.164Z,14.71
2022-10-30T02:00:21.342Z,14.61
2022-10-30T02:05:42.996Z,14.53
2022-10-30T02:10:46.665Z,14.42
2022-10-30T02:15:49.043Z,14.43
2022-10-30T02:20:50.698Z,14.50
2022-10-30T02:25:52.278Z,14.55
2022-10-30T02:30:53.812Z,14.52
2022-10-30T02:35:55.349Z,14.52
2022-10-30T02:40:58.423Z,14.57
2022-10-30T02:46:00.035Z,14.60
2022-10-30T02:51:02.509Z,14.57
2022-10-30T02:56:06.057Z,14.37
2022-10-30T03:01:13.041Z,14.53
2022-10-30T03:06:16.611Z,14.60
2022-10-30T03:11:19.678Z,14.57
2022-10-30T03:16:24.520Z,14.62
2022-10-30T03:21:27.343Z,14.55
2022-10-30T03:26:28.893Z,14.57
2022-10-30T03:31:37.577Z,14.57
2022-10-30T03:36:55.248Z,14.61
2022-10-30T03:41:57.259Z,14.62
2022-10-30T03:46:58.942Z,14.38
2022-10-30T03:52:12.211Z,14.52
2022-10-30T03:57:13.814Z,14.69
2022-10-30T04:02:27.267Z,14.63
2022-10-30T04:07:29.830Z,14.56
2022-10-30T04:12:31.367Z,14.66
2022-10-30T04:17:32.915Z,14.60
2022-10-30T04:22:38.457Z,14.58
2022-10-30T04:27:41.410Z,14.54
2022-10-30T04:32:49.300Z,14.53
2022-10-30T04:38:00.827Z,14.27
2022-10-30T04:43:05.911Z,14.26
2022-10-30T04:48:13.479Z,14.40
2022-10-30T04:53:18.119Z,14.38
2022-10-30T04:58:22.538Z,14.22
2022-10-30T05:03:32.916Z,14.45
2022-10-30T05:08:35.421Z,14.47
2022-10-30T05:13:46.200Z,14.30
2022-10-30T05:18:47.883Z,14.32
2022-10-30T05:23:49.359Z,14.15
2022-10-30T05:28:51.155Z,14.27
2022-10-30T05:33:52.684Z,14.26
2022-10-30T05:38:54.989Z,14.36
2022-10-30T05:44:05.825Z,14.28
2022-10-30T05:49:08.476Z,14.30
2022-10-30T05:54:10.135Z,14.41
2022-10-30T05:59:18.084Z,14.44
2022-10-30T06:04:20.760Z,14.46
2022-10-30T06:09:23.087Z,14.33
2022-10-30T06:14:42.859Z,14.45
2022-10-30T06:19:44.379Z,14.55
2022-10-30T06:25:17.627Z,14.56
2022-10-30T06:30:53.950Z,14.51
2022-10-30T06:35:55.653Z,14.43
2022-10-30T06:40:57.775Z,14.46
2022-10-30T06:46:19.794Z,14.58
2022-10-30T06:51:21.634Z,14.51
2022-10-30T06:56:23.386Z,14.64
2022-10-30T07:01:45.956Z,14.72
2022-10-30T07:06:50.684Z,14.81
2022-10-30T07:11:56.929Z,14.79
2022-10-30T07:17:17.284Z,14.74
2022-10-30T07:22:25.717Z,14.88
2022-10-30T07:27:29.231Z,14.92
2022-10-30T07:33:04.087Z,14.98
2022-10-30T07:38:25.562Z,15.02
2022-10-30T07:43:32.721Z,15.07
2022-10-30T07:48:56.929Z,15.11
2022-10-30T07:54:03.870Z,15.14
2022-10-30T07:59:07.334Z,15.13
2022-10-30T08:04:13.988Z,15.13
2022-10-30T08:09:15.672Z,15.02
2022-10-30T08:14:18.744Z,15.16
2022-10-30T08:19:20.318Z,15.23
2022-10-30T08:24:22.758Z,15.20
2022-10-30T08:29:27.043Z,15.24
2022-10-30T08:34:31.683Z,15.31
2022-10-30T08:39:38.783Z,15.37
2022-10-30T08:44:59.700Z,15.42
2022-10-30T08:50:26.427Z,15.48
2022-10-30T08:55:28.051Z,15.53
2022-10-30T09:00:31.533Z,15.59
2022-10-30T09:05:53.017Z,15.64
2022-10-30T09:11:12.978Z,15.73
2022-10-30T09:16:14.497Z,15.81
2022-10-30T09:21:16.195Z,15.85
2022-10-30T09:26:21.029Z,15.85
2022-10-30T09:31:58.712Z,15.89
2022-10-30T09:37:01.793Z,15.98
2022-10-30T09:42:21.747Z,16.06
2022-10-30T09:47:43.626Z,16.07
2022-10-30T09:53:10.841Z,16.12
2022-10-30T09:58:48.074Z,16.21
2022-10-30T10:03:56.752Z,16.24
2022-10-30T10:09:23.384Z,16.25
2022-10-30T10:14:51.547Z,16.38
2022-10-30T10:20:00.737Z,16.46
2022-10-30T10:25:03.918Z,16.55
2022-10-30T10:30:13.016Z,16.53
2022-10-30T10:35:48.330Z,16.64
2022-10-30T10:41:23.672Z,16.68
2022-10-30T10:46:43.385Z,16.76
2022-10-30T10:51:59.352Z,16.85
2022-10-30T10:57:04.001Z,16.89
2022-10-30T11:02:05.643Z,16.90
2022-10-30T11:07:26.454Z,17.07
2022-10-30T11:12:33.741Z,17.09
2022-10-30T11:18:10.172Z,17.10
2022-10-30T11:23:41.560Z,17.15
2022-10-30T11:28:50.575Z,17.19
2022-10-30T11:33:52.125Z,17.25
2022-10-30T11:38:55.975Z,17.35
2022-10-30T11:43:57.523Z,17.40
2022-10-30T11:48:59.046Z,17.47
2022-10-30T11:54:01.247Z,17.49
2022-10-30T11:59:04.347Z,17.61
2022-10-30T12:04:27.174Z,17.66
2022-10-30T12:09:29.432Z,17.70
2022-10-30T12:14:30.970Z,17.76
2022-10-30T12:19:32.466Z,17.79
2022-10-30T12:24:36.942Z,17.81
2022-10-30T12:30:07.242Z,17.85
2022-10-30T12:35:17.211Z,17.93
2022-10-30T12:40:25.705Z,17.98
2022-10-30T12:45:42.779Z,18.02
2022-10-30T12:50:57.060Z,18.06
2022-10-30T12:56:01.699Z,18.19
2022-10-30T13:01:26.649Z,18.11
2022-10-30T13:06:31.861Z,18.21
2022-10-30T13:11:40.372Z,18.28
2022-10-30T13:16:41.910Z,18.35
2022-10-30T13:22:02.020Z,18.30
2022-10-30T13:27:15.625Z,18.29
2022-10-30T13:32:45.379Z,18.26
2022-10-30T13:37:58.560Z,18.34
2022-10-30T13:43:25.550Z,18.31
2022-10-30T13:48:44.877Z,18.43
2022-10-30T13:53:49.197Z,18.41
2022-10-30T13:59:00.131Z,18.37
2022-10-30T14:04:13.893Z,18.32
2022-10-30T14:09:26.589Z,18.29
2022-10-30T14:14:31.746Z,18.30
2022-10-30T14:19:33.218Z,18.28
2022-10-30T14:24:34.992Z,18.27
2022-10-30T14:29:41.406Z,18.24
2022-10-30T14:34:51.893Z,18.21
2022-10-30T14:39:54.724Z,18.18
2022-10-30T14:45:18.228Z,18.16
2022-10-30T14:50:28.327Z,18.12
2022-10-30T14:55:50.258Z,18.07
2022-10-30T15:01:16.583Z,18.07
2022-10-30T15:06:36.327Z,18.02
2022-10-30T15:12:01.111Z,17.98
2022-10-30T15:17:02.845Z,17.92
2022-10-30T15:22:04.382Z,17.89
2022-10-30T15:27:05.970Z,17.80
2022-10-30T15:32:27.756Z,17.76
2022-10-30T15:37:29.864Z,17.71
2022-10-30T15:42:31.416Z,17.65
2022-10-30T15:47:33.201Z,17.57
2022-10-30T15:52:35.102Z,17.54
2022-10-30T15:58:03.464Z,17.47
2022-10-30T16:03:17.138Z,17.38
2022-10-30T16:08:23.070Z,17.36
2022-10-30T16:13:31.148Z,17.28
2022-10-30T16:18:35.817Z,17.24
2022-10-30T16:23:41.205Z,17.17
2022-10-30T16:28:47.563Z,17.04
2022-10-30T16:33:49.359Z,17.04
2022-10-30T16:38:51.056Z,17.02
2022-10-30T16:44:12.475Z,16.97
2022-10-30T16:49:17.504Z,16.89
2022-10-30T16:54:21.370Z,16.83
2022-10-30T16:59:32.906Z,16.80
2022-10-30T17:04:34.959Z,16.63
2022-10-30T17:09:38.054Z,16.66
2022-10-30T17:14:54.449Z,16.59
2022-10-30T17:20:06.721Z,16.53
2022-10-30T17:25:17.133Z,16.47
2022-10-30T17:30:29.311Z,16.50
2022-10-30T17:35:30.785Z,16.48
2022-10-30T17:40:32.260Z,16.38
2022-10-30T17:45:33.727Z,16.24
2022-10-30T17:50:35.215Z,16.26
2022-10-30T17:55:38.593Z,16.25
2022-10-30T18:00:40.164Z,16.10
2022-10-30T18:05:43.086Z,16.22
2022-10-30T18:10:44.751Z,16.10
2022-10-30T18:15:52.093Z,16.11
2022-10-30T18:20:53.602Z,16.06
2022-10-30T18:25:55.116Z,15.89
2022-10-30T18:30:58.542Z,15.94
2022-10-30T18:36:00.123Z,15.92
2022-10-30T18:41:01.621Z,15.91
2022-10-30T18:46:03.087Z,15.87
2022-10-30T18:51:05.639Z,15.54
2022-10-30T18:56:09.710Z,15.69
2022-10-30T19:01:13.217Z,15.59
2022-10-30T19:06:20.823Z,15.67
2022-10-30T19:11:25.042Z,15.65
2022-10-30T19:16:28.296Z,15.59
2022-10-30T19:21:33.375Z,15.58
2022-10-30T19:26:34.889Z,15.60
2022-10-30T19:31:36.439Z,15.53
2022-10-30T19:36:38.132Z,15.35
2022-10-30T19:41:40.090Z,15.31
2022-10-30T19:46:41.709Z,15.37
2022-10-30T19:51:43.252Z,15.42
2022-10-30T19:56:44.768Z,15.33
2022-10-30T20:01:46.419Z,15.30
2022-10-30T20:06:48.027Z,15.18
2022-10-30T20:11:49.564Z,15.17
2022-10-30T20:16:51.050Z,15.14
2022-10-30T20:21:52.554Z,15.13
2022-10-30T20:26:56.819Z,15.14
2022-10-30T20:31:58.327Z,15.12
2022-10-30T20:36:59.817Z,15.11
2022-10-30T20:42:01.359Z,14.98
2022-10-30T20:47:02.848Z,14.84
2022-10-30T20:52:04.490Z,14.96
2022-10-30T20:57:06.001Z,14.79
2022-10-30T21:02:10.515Z,14.92
2022-10-30T21:07:12.091Z,14.82
2022-10-30T21:12:13.592Z,14.79
2022-10-30T21:17:15.103Z,14.67
2022-10-30T21:22:16.656Z,14.70
2022-10-30T21:27:18.206Z,14.72
2022-10-30T21:32:19.730Z,14.65
2022-10-30T21:37:21.327Z,14.56
2022-10-30T21:42:22.848Z,14.58
2022-10-30T21:47:24.399Z,14.60
2022-10-30T21:52:25.900Z,14.48
2022-10-30T21:57:28.677Z,14.41
2022-10-30T22:02:30.267Z,14.47
2022-10-30T22:07:31.755Z,14.42
2022-10-30T22:12:33.293Z,14.37
2022-10-30T22:17:35.210Z,14.37
2022-10-30T22:22:36.862Z,14.35
2022-10-30T22:27:38.399Z,14.29
2022-10-30T22:32:39.943Z,14.24
2022-10-30T22:37:41.460Z,14.26
2022-10-30T22:42:42.980Z,14.30
2022-10-30T22:47:44.461Z,14.02
2022-10-30T22:52:45.967Z,14.02
2022-10-30T22:57:47.458Z,14.19
2022-10-30T23:02:48.983Z,14.18
2022-10-30T23:07:51.312Z,14.10
2022-10-30T23:12:52.807Z,14.14
2022-10-30T23:17:54.332Z,14.10
2022-10-30T23:22:55.811Z,14.02
2022-10-30T23:27:57.565Z,14.03
2022-10-30T23:32:59.318Z,13.99
2022-10-30T23:38:01.097Z,14.04
2022-10-30T23:43:03.052Z,13.95
2022-10-30T23:48:05.009Z,13.89
2022-10-30T23:53:06.500Z,13.86
2022-10-30T23:58:08.130Z,13.81
